createdAt,value
2023-02-17T00:01:13.540Z,38.03
2023-02-17T00:04:09.838Z,36.63
2023-02-17T00:06:38.702Z,40.90
2023-02-17T00:12:08.856Z,41.13
2023-02-17T00:14:36.351Z,40.63
2023-02-17T00:17:03.889Z,43.20
2023-02-17T00:19:31.446Z,38.50
2023-02-17T00:22:01.145Z,39.13
2023-02-17T00:27:28.195Z,40.67
2023-02-17T00:29:55.731Z,41.07
2023-02-17T00:32:23.188Z,41.73
2023-02-17T00:34:52.783Z,40.20
2023-02-17T00:37:21.617Z,35.97
2023-02-17T00:39:49.411Z,42.03
2023-02-17T00:42:19.705Z,35.53
2023-02-17T00:47:49.937Z,36.03
2023-02-17T00:50:18.174Z,38.10
2023-02-17T00:52:47.074Z,35.70
2023-02-17T00:55:14.655Z,38.47
2023-02-17T00:57:42.197Z,39.30
2023-02-17T01:03:11.843Z,33.33
2023-02-17T01:05:42.288Z,33.57
2023-02-17T01:08:11.482Z,37.23
2023-02-17T01:10:39.664Z,35.60
2023-02-17T01:15:55.896Z,38.47
2023-02-17T01:18:24.681Z,39.87
2023-02-17T01:20:52.689Z,38.33
2023-02-17T01:23:21.595Z,42.47
2023-02-17T01:25:50.613Z,41.00
2023-02-17T01:28:20.235Z,42.73
2023-02-17T01:33:47.172Z,38.93
2023-02-17T01:36:17.084Z,46.53
2023-02-17T01:38:47.246Z,43.17
2023-02-17T01:41:15.556Z,42.27
2023-02-17T01:43:43.494Z,44.17
2023-02-17T01:46:10.959Z,48.33
2023-02-17T01:51:39.025Z,46.47
2023-02-17T01:57:19.504Z,44.27
2023-02-17T01:59:47.466Z,43.33
2023-02-17T02:02:15.532Z,47.13
2023-02-17T02:04:44.663Z,43.13
2023-02-17T02:07:16.902Z,46.93
2023-02-17T02:12:43.145Z,50.87
2023-02-17T02:15:13.385Z,46.90
2023-02-17T02:17:48.294Z,46.60
2023-02-17T02:23:51.226Z,41.20
2023-02-17T02:29:58.022Z,42.13
2023-02-17T02:32:40.613Z,44.97
2023-02-17T02:35:12.024Z,46.27
2023-02-17T02:37:44.267Z,44.57
2023-02-17T02:43:13.285Z,44.17
2023-02-17T02:45:40.829Z,45.20
2023-02-17T02:48:09.674Z,45.17
2023-02-17T02:50:48.718Z,45.53
2023-02-17T02:56:23.242Z,38.90
2023-02-17T03:01:54.974Z,43.43
2023-02-17T03:04:31.797Z,45.13
2023-02-17T03:09:32.083Z,43.07
2023-02-17T03:11:59.787Z,43.67
2023-02-17T03:14:28.097Z,43.43
2023-02-17T03:16:55.686Z,45.13
2023-02-17T03:19:27.213Z,46.17
2023-02-17T03:25:05.940Z,49.50
2023-02-17T03:30:35.954Z,44.60
2023-02-17T03:33:03.525Z,42.33
2023-02-17T03:35:33.550Z,41.17
2023-02-17T03:38:01.053Z,40.77
2023-02-17T03:40:28.580Z,41.10
2023-02-17T03:42:57.000Z,43.77
2023-02-17T03:45:24.518Z,41.70
2023-02-17T03:47:52.032Z,43.93
2023-02-17T03:50:19.620Z,39.40
2023-02-17T03:55:51.179Z,39.63
2023-02-17T03:58:18.651Z,38.93
2023-02-17T04:00:49.207Z,37.90
2023-02-17T04:03:16.715Z,39.40
2023-02-17T04:08:33.354Z,40.10
2023-02-17T04:11:03.258Z,41.77
2023-02-17T04:13:54.771Z,39.00
2023-02-17T04:16:22.374Z,41.73
2023-02-17T04:18:49.818Z,41.33
2023-02-17T04:21:17.426Z,45.17
2023-02-17T04:26:49.115Z,42.30
2023-02-17T04:29:16.631Z,41.43
2023-02-17T04:31:44.314Z,50.00
2023-02-17T04:34:11.924Z,41.83
2023-02-17T04:39:41.854Z,47.27
2023-02-17T04:42:10.630Z,51.30
2023-02-17T04:44:38.060Z,45.30
2023-02-17T04:47:05.646Z,57.43
2023-02-17T04:52:14.617Z,56.43
2023-02-17T04:54:42.212Z,55.40
2023-02-17T04:57:10.989Z,57.20
2023-02-17T04:59:38.574Z,58.20
2023-02-17T05:02:06.126Z,60.90
2023-02-17T05:04:57.552Z,61.53
2023-02-17T05:07:27.121Z,55.07
2023-02-17T05:09:55.091Z,60.70
2023-02-17T05:12:23.864Z,51.87
2023-02-17T05:17:49.825Z,48.67
2023-02-17T05:20:17.256Z,57.23
2023-02-17T05:22:44.759Z,58.37
2023-02-17T05:25:12.204Z,57.60
2023-02-17T05:27:40.974Z,61.87
2023-02-17T05:33:06.920Z,50.37
2023-02-17T05:35:35.345Z,54.63
2023-02-17T05:38:02.918Z,51.57
2023-02-17T05:40:30.527Z,55.03
2023-02-17T05:46:04.978Z,43.00
2023-02-17T05:48:33.000Z,45.30
2023-02-17T05:51:00.737Z,48.37
2023-02-17T05:53:28.321Z,53.83
2023-02-17T05:55:55.914Z,47.50
2023-02-17T05:58:23.509Z,44.87
2023-02-17T06:00:51.112Z,42.43
2023-02-17T06:03:20.178Z,48.73
2023-02-17T06:05:47.840Z,44.03
2023-02-17T06:08:15.392Z,51.13
2023-02-17T06:10:43.576Z,46.63
2023-02-17T06:13:11.112Z,42.67
2023-02-17T06:15:38.902Z,42.43
2023-02-17T06:18:06.510Z,39.23
2023-02-17T06:23:24.343Z,43.93
2023-02-17T06:25:51.873Z,47.57
2023-02-17T06:28:19.426Z,39.13
2023-02-17T06:30:47.310Z,37.93
2023-02-17T06:33:14.766Z,37.90
2023-02-17T06:35:42.204Z,35.93
2023-02-17T06:38:09.730Z,34.43
2023-02-17T06:43:41.130Z,31.23
2023-02-17T06:46:08.986Z,31.17
2023-02-17T06:49:01.812Z,28.50
2023-02-17T06:51:29.643Z,31.00
2023-02-17T06:53:57.451Z,30.57
2023-02-17T06:56:25.065Z,29.23
2023-02-17T06:58:54.006Z,32.00
2023-02-17T07:01:23.502Z,32.47
2023-02-17T07:03:51.371Z,26.97
2023-02-17T07:09:21.932Z,27.93
2023-02-17T07:11:51.096Z,29.20
2023-02-17T07:17:25.492Z,29.60
2023-02-17T07:19:52.985Z,27.53
2023-02-17T07:22:21.464Z,31.57
2023-02-17T07:24:48.975Z,27.43
2023-02-17T07:27:16.371Z,29.40
2023-02-17T07:29:43.846Z,28.03
2023-02-17T07:32:23.062Z,28.37
2023-02-17T07:34:50.509Z,31.00
2023-02-17T07:37:19.943Z,28.37
2023-02-17T07:39:47.444Z,25.23
2023-02-17T07:42:14.988Z,29.27
2023-02-17T07:44:42.442Z,26.27
2023-02-17T07:47:09.941Z,25.83
2023-02-17T07:49:38.773Z,24.03
2023-02-17T07:54:54.870Z,22.57
2023-02-17T07:57:22.405Z,26.90
2023-02-17T07:59:50.181Z,20.37
2023-02-17T08:02:17.754Z,24.93
2023-02-17T08:07:45.112Z,22.07
2023-02-17T08:10:31.350Z,22.60
2023-02-17T08:13:16.474Z,21.07
2023-02-17T08:18:48.083Z,20.97
2023-02-17T08:21:15.530Z,22.13
2023-02-17T08:23:45.456Z,21.33
2023-02-17T08:26:12.970Z,22.73
2023-02-17T08:28:40.422Z,20.50
2023-02-17T08:31:07.960Z,16.00
2023-02-17T08:33:35.455Z,21.23
2023-02-17T08:36:07.720Z,21.10
2023-02-17T08:38:35.453Z,19.30
2023-02-17T08:41:13.147Z,19.20
2023-02-17T08:46:37.181Z,17.13
2023-02-17T08:49:05.641Z,19.30
2023-02-17T08:51:33.116Z,15.97
2023-02-17T08:54:01.500Z,17.83
2023-02-17T08:59:38.088Z,15.33
2023-02-17T09:02:05.677Z,18.10
2023-02-17T09:04:33.391Z,15.97
2023-02-17T09:07:01.063Z,17.33
2023-02-17T09:09:29.237Z,19.27
2023-02-17T09:14:50.609Z,18.77
2023-02-17T09:17:18.338Z,21.63
2023-02-17T09:19:45.868Z,18.73
2023-02-17T09:22:30.588Z,19.27
2023-02-17T09:25:22.780Z,21.30
2023-02-17T09:27:50.311Z,22.30
2023-02-17T09:30:19.141Z,24.07
2023-02-17T09:32:46.700Z,22.53
2023-02-17T09:35:15.060Z,20.57
2023-02-17T09:37:42.619Z,21.93
2023-02-17T09:42:59.877Z,23.43
2023-02-17T09:48:30.102Z,21.63
2023-02-17T09:50:59.564Z,22.77
2023-02-17T09:56:32.628Z,24.57
2023-02-17T09:59:04.294Z,23.27
2023-02-17T10:01:34.358Z,27.17
2023-02-17T10:07:03.460Z,24.33
2023-02-17T10:09:34.757Z,23.50
2023-02-17T10:12:04.170Z,28.77
2023-02-17T10:14:34.559Z,28.60
2023-02-17T10:17:06.467Z,26.10
2023-02-17T10:19:37.233Z,25.60
2023-02-17T10:22:08.542Z,26.30
2023-02-17T10:27:38.374Z,26.73
2023-02-17T10:30:17.227Z,25.40
2023-02-17T10:33:14.785Z,26.07
2023-02-17T10:35:50.522Z,24.70
2023-02-17T10:38:19.841Z,24.60
2023-02-17T10:40:48.806Z,25.73
2023-02-17T10:43:22.176Z,23.77
2023-02-17T10:45:51.143Z,22.23
2023-02-17T10:48:23.021Z,22.40
2023-02-17T10:50:52.259Z,23.63
2023-02-17T10:56:25.511Z,21.17
2023-02-17T10:58:56.070Z,23.63
2023-02-17T11:01:24.018Z,21.43
2023-02-17T11:04:02.639Z,19.87
2023-02-17T11:06:30.923Z,19.23
2023-02-17T11:12:02.458Z,21.23
2023-02-17T11:14:31.286Z,22.87
2023-02-17T11:20:03.938Z,20.40
2023-02-17T11:22:35.291Z,17.90
2023-02-17T11:25:06.411Z,16.30
2023-02-17T11:27:33.871Z,19.57
2023-02-17T11:30:09.875Z,17.57
2023-02-17T11:32:37.467Z,19.60
2023-02-17T11:35:25.354Z,17.53
2023-02-17T11:37:54.174Z,16.03
2023-02-17T11:40:26.919Z,17.00
2023-02-17T11:42:55.455Z,17.80
2023-02-17T11:45:24.252Z,15.00
2023-02-17T11:48:02.676Z,15.37
2023-02-17T11:53:23.625Z,15.53
2023-02-17T11:59:05.603Z,15.00
2023-02-17T12:01:50.184Z,15.50
2023-02-17T12:04:27.977Z,15.87
2023-02-17T12:07:08.807Z,15.80
2023-02-17T12:09:47.196Z,16.90
2023-02-17T12:12:21.416Z,16.97
2023-02-17T12:15:02.469Z,15.57
2023-02-17T12:17:39.057Z,15.47
2023-02-17T12:20:15.750Z,14.33
2023-02-17T12:22:46.793Z,12.20
2023-02-17T12:25:23.918Z,14.43
2023-02-17T12:28:00.940Z,13.90
2023-02-17T12:30:37.551Z,14.87
2023-02-17T12:33:16.645Z,13.73
2023-02-17T12:35:50.865Z,13.97
2023-02-17T12:38:20.263Z,14.43
2023-02-17T12:43:42.362Z,16.53
2023-02-17T12:46:13.018Z,14.63
2023-02-17T12:48:42.961Z,12.37
2023-02-17T12:51:13.000Z,13.53
2023-02-17T12:56:38.610Z,14.60
2023-02-17T13:02:02.990Z,15.53
2023-02-17T13:07:43.500Z,9.40
2023-02-17T13:10:21.851Z,10.73
2023-02-17T13:13:06.413Z,13.00
2023-02-17T13:15:37.404Z,8.77
2023-02-17T13:21:03.027Z,7.40
2023-02-17T13:23:39.242Z,9.00
2023-02-17T13:26:35.478Z,8.87
2023-02-17T13:29:18.055Z,8.77
2023-02-17T13:31:53.576Z,8.57
2023-02-17T13:34:30.169Z,10.67
2023-02-17T13:36:58.303Z,7.30
2023-02-17T13:39:34.603Z,11.17
2023-02-17T13:42:02.750Z,9.37
2023-02-17T13:44:39.276Z,9.30
2023-02-17T13:47:13.866Z,8.03
2023-02-17T13:49:41.673Z,8.10
2023-02-17T13:54:59.149Z,8.80
2023-02-17T13:57:28.575Z,10.40
2023-02-17T14:00:09.009Z,8.87
2023-02-17T14:02:40.063Z,10.13
2023-02-17T14:08:06.182Z,8.57
2023-02-17T14:13:37.264Z,9.00
2023-02-17T14:16:07.449Z,11.70
2023-02-17T14:18:37.742Z,10.97
2023-02-17T14:21:07.943Z,8.87
2023-02-17T14:26:37.819Z,12.40
2023-02-17T14:29:07.553Z,9.73
2023-02-17T14:31:40.601Z,8.93
2023-02-17T14:34:10.407Z,8.03
2023-02-17T14:39:25.644Z,9.47
2023-02-17T14:41:53.069Z,8.70
2023-02-17T14:47:19.980Z,9.40
2023-02-17T14:49:47.425Z,9.57
2023-02-17T14:52:20.058Z,9.90
2023-02-17T14:57:49.664Z,10.70
2023-02-17T15:00:17.664Z,10.60
2023-02-17T15:02:46.526Z,9.57
2023-02-17T15:05:13.928Z,11.93
2023-02-17T15:07:42.211Z,8.77
2023-02-17T15:10:18.292Z,9.73
2023-02-17T15:12:45.798Z,8.63
2023-02-17T15:15:18.471Z,11.10
2023-02-17T15:21:00.000Z,9.73
2023-02-17T15:23:31.691Z,9.53
2023-02-17T15:26:00.234Z,10.07
2023-02-17T15:28:27.641Z,9.47
2023-02-17T15:30:56.670Z,9.37
2023-02-17T15:33:24.998Z,9.50
2023-02-17T15:35:54.383Z,9.00
2023-02-17T15:38:24.326Z,9.10
2023-02-17T15:40:51.968Z,9.83
2023-02-17T15:46:22.652Z,8.37
2023-02-17T15:48:50.613Z,7.43
2023-02-17T15:51:19.920Z,8.50
2023-02-17T15:53:48.848Z,8.13
2023-02-17T15:56:20.383Z,8.53
2023-02-17T15:58:48.753Z,8.93
2023-02-17T16:01:19.644Z,7.10
2023-02-17T16:03:47.230Z,7.93
2023-02-17T16:06:14.636Z,8.03
2023-02-17T16:08:42.085Z,8.37
2023-02-17T16:11:13.271Z,10.73
2023-02-17T16:13:40.985Z,9.67
2023-02-17T16:16:16.137Z,8.23
2023-02-17T16:19:07.574Z,7.40
2023-02-17T16:21:35.122Z,11.43
2023-02-17T16:26:52.328Z,6.30
2023-02-17T16:29:22.336Z,10.17
2023-02-17T16:31:49.940Z,8.23
2023-02-17T16:34:20.709Z,10.37
2023-02-17T16:36:48.749Z,7.73
2023-02-17T16:39:17.402Z,7.00
2023-02-17T16:41:45.456Z,6.00
2023-02-17T16:44:15.069Z,8.63
2023-02-17T16:46:47.292Z,8.30
2023-02-17T16:49:20.223Z,10.03
2023-02-17T16:51:47.847Z,8.30
2023-02-17T16:57:03.788Z,12.80
2023-02-17T16:59:32.873Z,9.43
2023-02-17T17:02:01.573Z,14.00
2023-02-17T17:04:29.202Z,8.70
2023-02-17T17:10:06.846Z,6.33
2023-02-17T17:12:33.121Z,10.93
2023-02-17T17:15:38.554Z,8.57
2023-02-17T17:18:08.876Z,8.37
2023-02-17T17:20:41.680Z,9.23
2023-02-17T17:23:13.581Z,10.20
2023-02-17T17:25:42.981Z,8.33
2023-02-17T17:28:13.602Z,9.57
2023-02-17T17:30:41.161Z,8.80
2023-02-17T17:33:09.995Z,7.83
2023-02-17T17:35:38.080Z,8.80
2023-02-17T17:40:55.622Z,9.47
2023-02-17T17:43:24.076Z,8.63
2023-02-17T17:45:52.100Z,9.47
2023-02-17T17:48:20.942Z,10.50
2023-02-17T17:53:36.789Z,9.33
2023-02-17T17:56:04.722Z,10.53
2023-02-17T17:58:33.599Z,7.73
2023-02-17T18:01:01.913Z,8.10
2023-02-17T18:03:30.670Z,10.77
2023-02-17T18:05:58.705Z,10.23
2023-02-17T18:08:26.235Z,8.50
2023-02-17T18:10:53.713Z,10.17
2023-02-17T18:16:10.123Z,7.17
2023-02-17T18:18:39.581Z,10.67
2023-02-17T18:21:07.071Z,7.10
2023-02-17T18:23:34.542Z,6.53
2023-02-17T18:26:02.146Z,10.00
2023-02-17T18:28:29.726Z,8.87
2023-02-17T18:30:57.300Z,8.20
2023-02-17T18:33:35.518Z,9.23
2023-02-17T18:36:09.039Z,10.27
2023-02-17T18:41:38.698Z,11.90
2023-02-17T18:44:06.562Z,11.37
2023-02-17T18:46:34.291Z,11.03
2023-02-17T18:49:01.882Z,14.17
2023-02-17T18:54:33.014Z,15.80
2023-02-17T18:57:01.809Z,12.63
2023-02-17T18:59:29.299Z,9.33
2023-02-17T19:01:56.740Z,12.20
2023-02-17T19:04:24.595Z,10.13
2023-02-17T19:06:52.121Z,12.80
2023-02-17T19:09:19.547Z,8.73
2023-02-17T19:14:47.894Z,7.43
2023-02-17T19:17:18.225Z,7.07
2023-02-17T19:19:45.930Z,9.80
2023-02-17T19:22:13.358Z,6.70
2023-02-17T19:27:40.687Z,13.73
2023-02-17T19:30:11.876Z,9.03
2023-02-17T19:32:40.375Z,10.17
2023-02-17T19:35:10.618Z,7.03
2023-02-17T19:37:38.980Z,8.63
2023-02-17T19:40:07.886Z,8.50
2023-02-17T19:42:35.595Z,6.60
2023-02-17T19:48:07.421Z,6.97
2023-02-17T19:50:34.856Z,10.37
2023-02-17T19:53:02.385Z,8.60
2023-02-17T19:55:29.817Z,8.57
2023-02-17T19:57:57.282Z,11.67
2023-02-17T20:00:25.075Z,9.03
2023-02-17T20:02:52.570Z,11.60
2023-02-17T20:05:21.443Z,11.27
2023-02-17T20:07:50.401Z,12.90
2023-02-17T20:13:06.683Z,8.73
2023-02-17T20:15:34.114Z,9.90
2023-02-17T20:18:01.578Z,10.10
2023-02-17T20:20:30.325Z,13.43
2023-02-17T20:22:57.750Z,11.00
2023-02-17T20:25:25.271Z,10.37
2023-02-17T20:27:53.130Z,13.97
2023-02-17T20:33:22.666Z,15.00
2023-02-17T20:35:51.499Z,8.17
2023-02-17T20:38:19.006Z,10.30
2023-02-17T20:40:46.491Z,11.73
2023-02-17T20:43:15.256Z,16.40
2023-02-17T20:45:43.161Z,10.90
2023-02-17T20:51:13.993Z,8.33
2023-02-17T20:53:41.508Z,10.27
2023-02-17T20:56:13.002Z,10.13
2023-02-17T20:58:40.935Z,7.33
2023-02-17T21:04:13.913Z,17.60
2023-02-17T21:06:43.165Z,7.57
2023-02-17T21:12:02.180Z,8.60
2023-02-17T21:14:29.661Z,8.13
2023-02-17T21:16:57.150Z,9.37
2023-02-17T21:19:24.778Z,7.07
2023-02-17T21:24:52.849Z,5.90
2023-02-17T21:27:20.313Z,7.23
2023-02-17T21:29:47.979Z,7.67
2023-02-17T21:32:15.504Z,7.23
2023-02-17T21:37:45.065Z,7.83
2023-02-17T21:40:13.107Z,5.20
2023-02-17T21:42:55.361Z,8.23
2023-02-17T21:45:23.206Z,9.77
2023-02-17T21:50:49.630Z,6.73
2023-02-17T21:53:18.483Z,6.87
2023-02-17T21:55:47.144Z,9.40
2023-02-17T21:58:14.821Z,9.07
2023-02-17T22:00:42.309Z,8.00
2023-02-17T22:03:09.791Z,10.03
2023-02-17T22:05:37.216Z,9.27
2023-02-17T22:08:05.062Z,9.00
2023-02-17T22:10:37.443Z,10.60
2023-02-17T22:13:06.019Z,7.37
2023-02-17T22:15:33.559Z,7.80
2023-02-17T22:18:01.153Z,5.77
2023-02-17T22:20:29.148Z,7.57
2023-02-17T22:22:56.354Z,7.43
2023-02-17T22:25:24.309Z,10.90
2023-02-17T22:27:53.082Z,8.20
2023-02-17T22:30:20.829Z,11.67
2023-02-17T22:32:48.302Z,7.80
2023-02-17T22:35:15.895Z,7.87
2023-02-17T22:40:31.779Z,6.43
2023-02-17T22:43:00.592Z,10.97
2023-02-17T22:45:28.106Z,9.70
2023-02-17T22:47:55.646Z,9.37
2023-02-17T22:50:23.143Z,9.90
2023-02-17T22:55:52.500Z,7.73
2023-02-17T22:58:21.718Z,7.53
2023-02-17T23:00:49.345Z,9.77
2023-02-17T23:03:17.211Z,11.17
2023-02-17T23:05:45.330Z,8.07
2023-02-17T23:08:12.926Z,7.80
2023-02-17T23:13:30.089Z,10.57
2023-02-17T23:15:57.547Z,6.70
2023-02-17T23:18:25.050Z,6.93
2023-02-17T23:20:52.619Z,9.37
2023-02-17T23:26:15.229Z,12.03
2023-02-17T23:28:44.310Z,12.90
2023-02-17T23:34:00.648Z,8.57
2023-02-17T23:36:28.135Z,9.30
2023-02-17T23:38:56.482Z,15.07
2023-02-17T23:41:23.997Z,7.13
2023-02-17T23:43:52.790Z,9.50
2023-02-17T23:46:21.230Z,8.13
2023-02-17T23:48:48.851Z,12.17
2023-02-17T23:51:18.674Z,10.20
2023-02-17T23:56:30.966Z,6.37
2023-02-17T23:59:00.076Z,10.97
